Time;durP1;ratioP1;P1;durP2;ratioP2;P2;SDS_P1;SDS_P2;PMS_P1;PMS_P2;Temp;Humidity;BMP_temperature;BMP_pressure;BME280_temperature;BME280_humidity;BME280_pressure;Samples;Min_cycle;Max_cycle;Signal;HPM_P1;HPM_P2
2022/04/13 00:01:13;;;;;;;15.25;9.95;;;;;;;12.17;100.00;101011.88;4984712;28;20418;-74
2022/04/13 00:03:39;;;;;;;17.23;10.82;;;;;;;12.13;100.00;101007.97;4962492;28;20033;-74
2022/04/13 00:06:04;;;;;;;15.63;10.63;;;;;;;12.06;100.00;101012.59;4957986;28;20060;-74
2022/04/13 00:08:31;;;;;;;14.77;10.25;;;;;;;12.02;100.00;101014.09;4968129;28;20596;-74
2022/04/13 00:10:57;;;;;;;13.60;10.38;;;;;;;11.85;100.00;101000.28;4956292;28;20045;-74
2022/04/13 00:13:22;;;;;;;17.05;11.32;;;;;;;11.79;100.00;101011.06;4970983;28;24694;-74
2022/04/13 00:15:48;;;;;;;15.30;11.35;;;;;;;11.69;100.00;101009.69;4956281;28;20069;-74
2022/04/13 00:18:13;;;;;;;15.38;10.55;;;;;;;11.56;100.00;101009.75;4984582;28;20116;-74
2022/04/13 00:20:38;;;;;;;17.10;11.13;;;;;;;11.49;100.00;101008.97;4955467;28;23648;-74
2022/04/13 00:23:04;;;;;;;14.77;11.30;;;;;;;11.41;100.00;101006.53;4967648;28;20030;-74
2022/04/13 00:25:30;;;;;;;19.27;11.82;;;;;;;11.26;100.00;101014.84;4970659;28;20038;-74
2022/04/13 00:27:56;;;;;;;16.50;11.65;;;;;;;11.11;100.00;101004.34;4953171;28;20139;-74
2022/04/13 00:30:21;;;;;;;17.15;11.80;;;;;;;11.02;100.00;101000.22;4967963;28;20060;-74
2022/04/13 00:32:47;;;;;;;16.25;11.07;;;;;;;10.86;100.00;100995.28;4956621;28;20060;-74
2022/04/13 00:35:12;;;;;;;16.15;11.02;;;;;;;10.82;100.00;101012.91;4969099;28;20046;-74
2022/04/13 00:37:39;;;;;;;17.17;11.02;;;;;;;10.80;100.00;101015.00;4950071;28;20142;-74
2022/04/13 00:40:08;;;;;;;16.08;11.32;;;;;;;10.73;100.00;101021.22;4970764;28;20037;-74
2022/04/13 00:42:34;;;;;;;17.23;10.98;;;;;;;10.68;100.00;101023.72;4954456;28;20586;-73
2022/04/13 00:44:59;;;;;;;16.08;11.40;;;;;;;10.60;100.00;101015.00;4969976;28;23636;-74
2022/04/13 00:47:25;;;;;;;16.33;11.98;;;;;;;10.51;100.00;101017.09;4970929;28;20193;-74
2022/04/13 00:49:50;;;;;;;16.23;11.68;;;;;;;10.49;100.00;101024.53;4954108;28;20050;-74
2022/04/13 00:52:18;;;;;;;20.27;11.60;;;;;;;10.46;100.00;101031.19;4967913;28;20034;-73
2022/04/13 00:54:47;;;;;;;18.00;12.02;;;;;;;10.48;100.00;101030.97;4934910;28;20049;-74
2022/04/13 00:57:15;;;;;;;17.58;10.48;;;;;;;10.51;100.00;101027.88;4964930;28;20116;-74
2022/04/13 00:59:44;;;;;;;19.10;10.93;;;;;;;10.56;100.00;101035.31;4954997;28;20052;-74
2022/04/13 01:02:12;;;;;;;17.58;10.48;;;;;;;10.54;100.00;101032.84;4954320;28;20054;-74
2022/04/13 01:04:38;;;;;;;14.82;10.45;;;;;;;10.50;100.00;101035.13;4956806;28;20104;-74
2022/04/13 01:07:07;;;;;;;16.40;10.05;;;;;;;10.50;100.00;101035.13;4969304;28;20034;-74
2022/04/13 01:09:33;;;;;;;15.35;11.02;;;;;;;10.60;100.00;101032.03;4955901;28;20041;-74
2022/04/13 01:11:59;;;;;;;19.13;11.27;;;;;;;10.65;100.00;101037.59;4954403;28;20076;-74
2022/04/13 01:14:24;;;;;;;14.88;10.20;;;;;;;10.66;100.00;101049.19;4972009;28;20505;-74
2022/04/13 01:16:50;;;;;;;15.60;10.55;;;;;;;10.62;100.00;101050.66;4956726;28;20096;-73
2022/04/13 01:19:17;;;;;;;19.55;9.98;;;;;;;10.58;100.00;101063.72;4972669;28;20088;-74
2022/04/13 01:21:47;;;;;;;13.85;10.38;;;;;;;10.61;100.00;101059.78;4955189;28;20203;-73
2022/04/13 01:24:13;;;;;;;17.45;10.27;;;;;;;10.64;100.00;101048.59;4966679;28;20067;-73
2022/04/13 01:26:39;;;;;;;13.63;10.32;;;;;;;10.68;100.00;101056.03;4944649;28;20040;-74
2022/04/13 01:29:05;;;;;;;14.32;10.35;;;;;;;10.63;100.00;101058.50;4970625;28;20053;-74
2022/04/13 01:31:32;;;;;;;17.50;10.68;;;;;;;10.62;100.00;101056.88;4973991;28;20029;-74
2022/04/13 01:33:59;;;;;;;13.02;9.60;;;;;;;10.66;100.00;101066.19;4964287;28;20049;-74
2022/04/13 01:36:25;;;;;;;12.52;9.48;;;;;;;10.67;100.00;101067.88;4969557;28;20124;-73
2022/04/13 01:38:50;;;;;;;15.88;9.52;;;;;;;10.68;100.00;101066.81;4950207;28;20054;-73
2022/04/13 01:41:16;;;;;;;14.23;10.10;;;;;;;10.70;100.00;101066.59;4971136;28;20046;-74
2022/04/13 01:43:41;;;;;;;17.73;11.38;;;;;;;10.74;100.00;101068.69;4950359;28;20658;-74
2022/04/13 01:46:07;;;;;;;16.42;10.68;;;;;;;10.72;100.00;101068.06;4968727;28;20833;-74
2022/04/13 01:48:32;;;;;;;14.05;10.38;;;;;;;10.60;100.00;101075.13;4962025;28;20123;-73
2022/04/13 01:51:01;;;;;;;14.80;10.48;;;;;;;10.44;100.00;101076.34;4953688;28;20135;-73
2022/04/13 01:53:26;;;;;;;15.82;10.35;;;;;;;10.34;100.00;101075.91;4965171;28;20141;-73
2022/04/13 01:55:53;;;;;;;14.55;11.50;;;;;;;10.30;100.00;101079.25;4940403;28;20071;-74
2022/04/13 01:58:20;;;;;;;15.23;11.57;;;;;;;10.24;100.00;101070.91;4975542;28;20049;-73
2022/04/13 02:00:45;;;;;;;16.50;11.35;;;;;;;10.21;100.00;101083.94;4952133;28;20045;-73
2022/04/13 02:03:11;;;;;;;15.98;10.88;;;;;;;10.10;100.00;101079.97;4967872;28;20096;-74
2022/04/13 02:05:36;;;;;;;17.00;11.23;;;;;;;10.01;100.00;101081.22;4951690;28;20325;-73
2022/04/13 02:08:02;;;;;;;13.80;10.48;;;;;;;9.92;100.00;101082.44;4965509;28;20060;-74
2022/04/13 02:10:28;;;;;;;19.13;12.40;;;;;;;9.87;100.00;101082.22;4966562;28;20045;-74
2022/04/13 02:12:53;;;;;;;17.50;11.73;;;;;;;9.87;100.00;101090.28;4952321;28;22562;-75
2022/04/13 02:15:18;;;;;;;16.60;11.77;;;;;;;9.91;100.00;101086.16;4966496;28;20037;-74
2022/04/13 02:17:44;;;;;;;16.20;11.85;;;;;;;9.86;100.00;101088.63;4953713;28;20061;-74
2022/04/13 02:20:10;;;;;;;17.80;12.52;;;;;;;9.82;100.00;101093.56;4972173;28;20044;-74
2022/04/13 02:22:36;;;;;;;13.63;10.75;;;;;;;9.73;100.00;101100.19;4949866;28;20078;-74
2022/04/13 02:25:06;;;;;;;18.83;12.10;;;;;;;9.65;100.00;101093.13;4967015;28;20073;-74
2022/04/13 02:27:31;;;;;;;16.75;11.77;;;;;;;9.58;100.00;101086.84;4951965;28;20053;-74
2022/04/13 02:29:57;;;;;;;20.27;12.27;;;;;;;9.57;100.00;101090.56;4968838;28;24650;-74
2022/04/13 02:32:23;;;;;;;15.52;11.77;;;;;;;9.54;100.00;101094.50;4968335;28;20045;-74
2022/04/13 02:34:48;;;;;;;15.55;12.07;;;;;;;9.48;100.00;101091.78;4964820;28;20131;-74
2022/04/13 02:37:17;;;;;;;19.25;12.13;;;;;;;9.43;100.00;101094.22;4966510;28;20129;-74
2022/04/13 02:39:44;;;;;;;19.25;12.00;;;;;;;9.37;100.00;101095.03;4953925;28;20143;-74
2022/04/13 02:42:14;;;;;;;16.67;12.90;;;;;;;9.29;100.00;101101.41;4971808;28;20469;-74
2022/04/13 02:44:43;;;;;;;20.15;12.55;;;;;;;9.27;100.00;101101.59;4955999;28;20085;-74
2022/04/13 02:47:11;;;;;;;20.42;14.35;;;;;;;9.28;100.00;101103.25;4953074;28;20049;-74
2022/04/13 02:49:37;;;;;;;18.27;13.63;;;;;;;9.34;100.00;101101.66;4958301;28;20483;-75
2022/04/13 02:52:03;;;;;;;20.83;12.77;;;;;;;9.33;100.00;101087.34;4971638;28;20041;-74
2022/04/13 02:54:29;;;;;;;20.67;13.20;;;;;;;9.42;100.00;101095.28;4967165;28;20037;-74
2022/04/13 02:56:54;;;;;;;20.88;14.00;;;;;;;9.45;100.00;101103.78;4953836;28;20041;-75
2022/04/13 02:59:20;;;;;;;19.08;13.20;;;;;;;9.44;100.00;101110.19;4963539;28;20030;-74
2022/04/13 03:01:46;;;;;;;19.98;14.02;;;;;;;9.41;100.00;101112.44;4950303;28;20045;-74
2022/04/13 03:04:13;;;;;;;17.55;13.57;;;;;;;9.40;100.00;101119.66;4973107;28;20037;-74
2022/04/13 03:06:38;;;;;;;24.52;14.68;;;;;;;9.41;100.00;101117.81;4953890;28;20175;-74
2022/04/13 03:09:04;;;;;;;19.88;15.00;;;;;;;9.46;100.00;101126.09;4972527;28;20815;-74
2022/04/13 03:11:30;;;;;;;22.13;14.98;;;;;;;9.51;100.00;101123.63;4957772;28;20037;-74
2022/04/13 03:13:56;;;;;;;18.95;14.27;;;;;;;9.51;100.00;101121.81;4972595;28;20061;-74
2022/04/13 03:16:22;;;;;;;21.48;14.88;;;;;;;9.50;100.00;101122.00;4972540;28;20059;-74
2022/04/13 03:18:47;;;;;;;24.83;15.98;;;;;;;9.54;100.00;101129.44;4953276;28;20370;-74
2022/04/13 03:21:13;;;;;;;26.48;15.90;;;;;;;9.57;100.00;101128.22;4969836;28;20037;-74
2022/04/13 03:23:38;;;;;;;19.88;15.45;;;;;;;9.61;100.00;101137.56;4959792;28;22267;-74
2022/04/13 03:26:03;;;;;;;21.73;14.88;;;;;;;9.62;100.00;101135.69;4970597;28;20120;-74
2022/04/13 03:28:29;;;;;;;26.13;15.60;;;;;;;9.63;100.00;101140.06;4955603;28;20168;-74
2022/04/13 03:30:54;;;;;;;22.50;16.15;;;;;;;9.64;100.00;101139.03;4958056;28;20029;-74
2022/04/13 03:33:20;;;;;;;24.15;16.27;;;;;;;9.66;100.00;101135.13;4954645;28;22232;-73
2022/04/13 03:35:45;;;;;;;24.05;16.58;;;;;;;9.72;100.00;101142.41;4954194;28;20136;-74
2022/04/13 03:38:11;;;;;;;25.67;15.23;;;;;;;9.71;100.00;101140.72;4974746;28;24267;-74
2022/04/13 03:40:36;;;;;;;23.95;15.52;;;;;;;9.72;100.00;101153.16;4956181;28;20049;-74
2022/04/13 03:43:02;;;;;;;28.67;16.23;;;;;;;9.70;100.00;101149.81;4971287;28;20046;-74
2022/04/13 03:45:27;;;;;;;21.77;15.40;;;;;;;9.64;100.00;101156.00;4952857;28;20060;-74
2022/04/13 03:47:53;;;;;;;25.58;17.70;;;;;;;9.61;100.00;101159.06;4969951;28;20034;-74
2022/04/13 03:50:18;;;;;;;21.48;16.77;;;;;;;9.55;100.00;101157.19;4953173;28;20247;-74
2022/04/13 03:52:43;;;;;;;27.05;16.30;;;;;;;9.51;100.00;101172.91;4971673;28;20032;-74
2022/04/13 03:55:10;;;;;;;23.30;16.65;;;;;;;9.46;100.00;101166.44;4969871;28;20067;-74
2022/04/13 03:57:35;;;;;;;28.77;17.35;;;;;;;9.53;100.00;101170.00;4954882;28;20065;-74
2022/04/13 04:00:01;;;;;;;24.23;16.35;;;;;;;9.58;100.00;101167.53;4971943;28;20341;-74
2022/04/13 04:02:27;;;;;;;22.65;16.30;;;;;;;9.71;100.00;101177.53;4941634;28;20096;-74
2022/04/13 04:04:52;;;;;;;25.67;16.88;;;;;;;9.79;100.00;101180.91;4973949;28;20083;-74
2022/04/13 04:07:17;;;;;;;22.90;15.95;;;;;;;9.87;100.00;101177.22;4962547;28;20119;-74
2022/04/13 04:09:44;;;;;;;23.85;17.70;;;;;;;9.93;100.00;101180.97;4977994;28;20449;-74
2022/04/13 04:12:09;;;;;;;28.08;16.17;;;;;;;9.97;100.00;101176.84;4964708;28;20175;-74
2022/04/13 04:14:35;;;;;;;24.85;16.33;;;;;;;10.04;100.00;101172.34;4961722;28;20042;-74
2022/04/13 04:17:00;;;;;;;24.88;15.85;;;;;;;10.11;100.00;101177.72;4973616;28;20057;-74
2022/04/13 04:19:26;;;;;;;25.50;16.70;;;;;;;10.18;100.00;101174.03;4938784;28;20054;-74
2022/04/13 04:21:51;;;;;;;28.75;17.13;;;;;;;10.24;100.00;101173.22;4968806;28;20038;-74
2022/04/13 04:24:17;;;;;;;27.67;15.98;;;;;;;10.30;100.00;101177.00;4953847;28;20050;-74
2022/04/13 04:26:43;;;;;;;27.50;16.50;;;;;;;10.38;100.00;101178.66;4970100;28;20041;-74
2022/04/13 04:29:09;;;;;;;24.35;15.75;;;;;;;10.44;100.00;101191.31;4952072;28;20123;-74
2022/04/13 04:31:49;;;;;;;22.10;15.60;;;;;;;10.48;100.00;101179.09;4956569;28;20152;-74
2022/04/13 04:34:16;;;;;;;29.25;16.98;;;;;;;10.45;100.00;101172.25;4963589;28;20037;-74
2022/04/13 04:36:41;;;;;;;24.17;16.25;;;;;;;10.47;100.00;101193.63;4964860;28;20173;-74
2022/04/13 04:39:07;;;;;;;25.13;16.20;;;;;;;10.45;100.00;101184.91;4970204;28;20099;-74
2022/04/13 04:41:33;;;;;;;23.10;15.20;;;;;;;10.38;100.00;101189.44;4957089;28;20107;-74
2022/04/13 04:43:59;;;;;;;24.70;15.73;;;;;;;10.25;100.00;101185.69;4971522;28;20041;-74
2022/04/13 04:46:24;;;;;;;25.15;16.83;;;;;;;10.20;100.00;101196.19;4965775;28;20056;-74
2022/04/13 04:48:49;;;;;;;25.23;15.60;;;;;;;10.14;100.00;101194.28;4965935;28;20076;-75
2022/04/13 04:51:15;;;;;;;27.30;17.13;;;;;;;10.14;100.00;101205.06;4954132;28;20838;-74
2022/04/13 04:53:41;;;;;;;28.55;17.80;;;;;;;10.12;100.00;101201.75;4967664;28;20138;-74
2022/04/13 04:56:07;;;;;;;31.05;17.50;;;;;;;10.03;100.00;101197.56;4970691;28;20030;-74
2022/04/13 04:58:32;;;;;;;24.77;16.38;;;;;;;9.93;100.00;101203.34;4952079;28;20049;-75
2022/04/13 05:00:58;;;;;;;24.33;15.38;;;;;;;9.84;100.00;101209.09;4958342;28;20687;-75
2022/04/13 05:03:23;;;;;;;22.60;17.13;;;;;;;9.76;100.00;101221.66;4953911;28;20148;-74
2022/04/13 05:05:48;;;;;;;28.85;17.50;;;;;;;9.75;100.00;101214.59;4983863;28;20041;-74
2022/04/13 05:08:14;;;;;;;24.83;18.05;;;;;;;9.75;100.00;101211.91;4953672;28;20057;-74
2022/04/13 05:10:41;;;;;;;28.35;18.52;;;;;;;9.86;100.00;101223.16;4968697;28;20057;-74
2022/04/13 05:13:06;;;;;;;33.92;20.02;;;;;;;10.00;100.00;101224.88;4956754;28;20056;-74
2022/04/13 05:15:32;;;;;;;33.10;20.88;;;;;;;10.08;100.00;101222.03;4943630;28;20033;-74
2022/04/13 05:17:57;;;;;;;32.17;20.63;;;;;;;10.24;100.00;101227.06;4972058;28;20041;-74
2022/04/13 05:20:23;;;;;;;27.40;19.23;;;;;;;10.40;100.00;101225.09;4953505;28;20144;-74
2022/04/13 05:22:48;;;;;;;31.08;17.95;;;;;;;10.49;100.00;101234.63;4970183;28;20026;-74
2022/04/13 05:25:15;;;;;;;27.65;18.52;;;;;;;10.55;100.00;101236.53;4952941;28;20067;-74
2022/04/13 05:27:41;;;;;;;27.33;17.90;;;;;;;10.54;100.00;101232.16;4970731;28;20029;-74
2022/04/13 05:30:08;;;;;;;24.30;15.93;;;;;;;10.59;100.00;101228.84;4980270;28;20040;-74
2022/04/13 05:32:56;;;;;;;29.13;17.25;;;;;;;10.66;100.00;101235.91;4967240;28;20041;-74
2022/04/13 05:35:22;;;;;;;30.02;18.05;;;;;;;10.74;100.00;101238.44;4937820;28;20100;-75
2022/04/13 05:37:47;;;;;;;34.42;18.80;;;;;;;10.83;100.00;101249.03;4967237;28;20068;-74
2022/04/13 05:40:13;;;;;;;26.13;18.13;;;;;;;10.90;100.00;101247.16;4952656;28;20117;-74
2022/04/13 05:42:38;;;;;;;26.02;16.63;;;;;;;10.97;100.00;101237.22;4957930;28;20169;-74
2022/04/13 05:45:04;;;;;;;28.90;17.60;;;;;;;11.06;100.00;101254.88;4967664;28;20083;-75
2022/04/13 05:47:30;;;;;;;25.55;18.05;;;;;;;11.18;100.00;101261.28;4952834;28;20045;-75
2022/04/13 05:49:55;;;;;;;30.25;18.90;;;;;;;11.31;100.00;101267.75;4972840;28;20040;-75
2022/04/13 05:52:21;;;;;;;31.20;19.48;;;;;;;11.40;100.00;101269.19;4956412;28;20089;-74
2022/04/13 05:54:46;;;;;;;48.47;22.77;;;;;;;11.50;100.00;101269.59;4975529;28;20457;-74
2022/04/13 05:57:12;;;;;;;32.17;20.17;;;;;;;11.63;100.00;101275.00;4967654;28;20064;-75
2022/04/13 05:59:38;;;;;;;31.20;19.27;;;;;;;11.71;100.00;101280.16;4948098;28;20099;-74
2022/04/13 06:02:04;;;;;;;26.95;18.48;;;;;;;11.88;100.00;101279.75;4972139;28;20033;-74
2022/04/13 06:04:29;;;;;;;28.77;18.25;;;;;;;11.98;100.00;101266.66;4955006;28;20045;-74
2022/04/13 06:06:55;;;;;;;30.27;18.70;;;;;;;12.10;100.00;101278.44;4936480;28;20502;-74
2022/04/13 06:09:23;;;;;;;30.55;18.70;;;;;;;12.21;100.00;101281.53;4939351;28;20123;-74
2022/04/13 06:11:49;;;;;;;33.00;20.17;;;;;;;12.31;100.00;101284.63;4969062;28;20132;-74
2022/04/13 06:14:15;;;;;;;24.70;17.27;;;;;;;12.48;100.00;101288.50;4954248;28;20041;-75
2022/04/13 06:16:41;;;;;;;38.55;19.48;;;;;;;12.75;100.00;101294.59;4954355;28;20041;-75
2022/04/13 06:19:06;;;;;;;27.85;17.88;;;;;;;13.01;100.00;101304.44;4966516;28;20152;-74
2022/04/13 06:21:32;;;;;;;30.27;18.08;;;;;;;13.25;100.00;101304.72;4950837;28;20186;-74
2022/04/13 06:23:57;;;;;;;30.65;16.77;;;;;;;13.61;100.00;101309.44;4968062;28;20037;-74
2022/04/13 06:26:22;;;;;;;28.77;17.33;;;;;;;14.06;100.00;101315.47;4956303;28;20060;-74
2022/04/13 06:28:48;;;;;;;24.98;17.05;;;;;;;14.66;100.00;101316.69;4968357;28;20048;-74
2022/04/13 06:31:13;;;;;;;28.88;16.52;;;;;;;15.10;100.00;101326.31;4952082;28;20797;-75
2022/04/13 06:33:39;;;;;;;24.15;16.95;;;;;;;15.74;100.00;101318.41;4968616;28;20081;-74
2022/04/13 06:36:06;;;;;;;30.48;16.23;;;;;;;16.54;100.00;101334.06;4966416;28;20030;-74
2022/04/13 06:38:34;;;;;;;29.88;16.30;;;;;;;17.11;100.00;101333.28;4968345;28;20061;-74
2022/04/13 06:41:00;;;;;;;30.27;16.27;;;;;;;17.12;100.00;101340.38;4971566;28;20112;-72
2022/04/13 06:43:26;;;;;;;29.75;16.15;;;;;;;16.61;100.00;101345.63;4954587;28;20490;-73
2022/04/13 06:45:54;;;;;;;21.90;16.17;;;;;;;16.11;100.00;101343.47;4974955;28;20437;-73
2022/04/13 06:48:21;;;;;;;22.63;15.90;;;;;;;15.78;100.00;101352.19;4958998;28;20056;-73
2022/04/13 06:50:46;;;;;;;31.30;16.92;;;;;;;15.93;100.00;101347.13;4973015;28;20029;-73
2022/04/13 06:53:14;;;;;;;23.65;16.83;;;;;;;16.03;100.00;101348.41;4942368;28;21097;-73
2022/04/13 06:55:40;;;;;;;22.83;15.35;;;;;;;16.51;100.00;101355.47;4988000;28;20057;-73
2022/04/13 06:58:06;;;;;;;24.88;15.68;;;;;;;17.17;100.00;101354.91;4956605;28;20135;-73
2022/04/13 07:00:32;;;;;;;26.80;14.65;;;;;;;17.69;100.00;101361.22;4971745;28;20480;-73
2022/04/13 07:02:57;;;;;;;24.13;15.60;;;;;;;18.44;96.12;101360.75;4966313;28;20403;-73
2022/04/13 07:05:27;;;;;;;25.35;14.68;;;;;;;18.53;91.33;101366.56;4955719;28;20045;-73
2022/04/13 07:07:53;;;;;;;24.67;15.23;;;;;;;18.13;94.82;101367.66;4972025;28;20140;-73
2022/04/13 07:10:19;;;;;;;21.92;14.77;;;;;;;17.71;100.00;101370.81;4963378;28;20188;-73
2022/04/13 07:12:44;;;;;;;20.40;14.20;;;;;;;17.07;100.00;101375.66;4973573;28;20088;-74
2022/04/13 07:15:11;;;;;;;25.77;14.57;;;;;;;16.83;100.00;101367.59;4957481;28;20149;-73
2022/04/13 07:17:36;;;;;;;24.40;14.90;;;;;;;16.69;100.00;101372.44;4974612;28;20041;-74
2022/04/13 07:20:02;;;;;;;24.10;15.18;;;;;;;16.83;100.00;101364.88;4979228;28;20029;-73
2022/04/13 07:22:28;;;;;;;23.95;14.82;;;;;;;17.00;100.00;101364.09;4970128;28;20049;-74
2022/04/13 07:24:53;;;;;;;24.48;15.65;;;;;;;17.96;100.00;101364.97;4991561;28;20059;-73
2022/04/13 07:27:19;;;;;;;27.70;14.90;;;;;;;19.12;90.04;101377.69;4968265;28;20054;-73
2022/04/13 07:29:44;;;;;;;24.30;13.95;;;;;;;19.98;77.83;101376.84;4975192;28;20034;-74
2022/04/13 07:32:11;;;;;;;23.13;13.52;;;;;;;20.14;71.78;101381.31;4958654;28;20479;-73
2022/04/13 07:34:36;;;;;;;21.52;14.00;;;;;;;20.41;68.88;101396.78;4971660;28;20048;-73
2022/04/13 07:37:05;;;;;;;20.80;12.98;;;;;;;21.04;66.30;101399.56;4936451;28;20057;-73
2022/04/13 07:39:30;;;;;;;25.85;13.63;;;;;;;21.60;62.21;101400.50;4982085;28;20049;-73
2022/04/13 07:41:56;;;;;;;24.08;13.98;;;;;;;22.04;59.45;101408.19;4976917;28;20038;-73
2022/04/13 07:44:21;;;;;;;24.75;13.23;;;;;;;21.89;59.57;101402.72;4959277;28;21988;-73
2022/04/13 07:46:47;;;;;;;22.73;12.68;;;;;;;22.36;58.09;101407.09;4974962;28;20033;-73
2022/04/13 07:49:12;;;;;;;17.40;12.18;;;;;;;22.37;57.11;101405.97;4962128;28;20140;-73
2022/04/13 07:51:40;;;;;;;20.25;12.32;;;;;;;21.60;58.67;101418.88;4981280;28;20044;-74
2022/04/13 07:54:06;;;;;;;21.25;11.80;;;;;;;20.58;62.81;101408.41;4964299;28;20045;-73
2022/04/13 07:56:32;;;;;;;22.05;12.65;;;;;;;19.97;69.08;101410.72;4986051;28;20053;-73
2022/04/13 07:58:57;;;;;;;20.90;12.05;;;;;;;19.15;77.46;101412.66;4975740;28;22500;-73
2022/04/13 08:01:23;;;;;;;18.52;11.65;;;;;;;18.31;90.57;101423.81;4986444;28;20033;-73
2022/04/13 08:03:48;;;;;;;20.23;12.80;;;;;;;18.16;96.84;101431.78;4978033;28;23660;-73
2022/04/13 08:06:13;;;;;;;18.25;12.57;;;;;;;18.13;98.81;101431.19;4956758;28;20069;-74
2022/04/13 08:08:39;;;;;;;23.00;12.48;;;;;;;17.78;100.00;101450.53;4973945;28;20084;-74
2022/04/13 08:11:06;;;;;;;20.50;13.57;;;;;;;17.65;100.00;101445.34;4957286;28;20081;-74
2022/04/13 08:13:32;;;;;;;23.30;12.63;;;;;;;17.54;100.00;101448.97;4976851;28;20145;-74
2022/04/13 08:15:58;;;;;;;22.67;12.80;;;;;;;17.21;100.00;101455.97;4954984;28;20077;-74
2022/04/13 08:18:23;;;;;;;20.92;12.65;;;;;;;16.99;100.00;101457.69;4971667;28;20035;-75
2022/04/13 08:20:49;;;;;;;21.35;12.00;;;;;;;16.88;100.00;101449.34;4982440;28;20033;-75
2022/04/13 08:23:15;;;;;;;25.00;13.52;;;;;;;16.67;100.00;101458.06;4957387;28;20099;-74
2022/04/13 08:25:41;;;;;;;19.50;12.20;;;;;;;16.63;100.00;101457.72;4974223;28;20112;-74
2022/04/13 08:28:06;;;;;;;21.98;13.05;;;;;;;16.74;100.00;101458.78;4955819;28;20054;-74
2022/04/13 08:30:32;;;;;;;21.27;12.48;;;;;;;16.87;100.00;101463.97;4975034;28;20084;-75
2022/04/13 08:32:57;;;;;;;23.35;13.77;;;;;;;17.10;100.00;101457.66;4955639;28;20131;-75
2022/04/13 08:35:23;;;;;;;20.20;13.73;;;;;;;17.51;100.00;101457.63;4967228;28;20117;-77
2022/04/13 08:37:48;;;;;;;19.40;12.88;;;;;;;17.49;100.00;101465.22;4949790;28;20082;-77
2022/04/13 08:40:16;;;;;;;21.65;13.00;;;;;;;17.42;100.00;101460.75;4971569;28;21388;-77
2022/04/13 08:42:49;;;;;;;20.60;13.00;;;;;;;17.28;100.00;101459.38;4968003;28;20128;-76
2022/04/13 08:45:15;;;;;;;26.40;14.90;;;;;;;17.46;100.00;101469.25;4953560;28;20103;-76
2022/04/13 08:47:46;;;;;;;23.83;12.70;;;;;;;18.11;100.00;101466.09;4972220;28;20041;-76
2022/04/13 08:50:12;;;;;;;21.70;12.23;;;;;;;18.92;97.49;101467.53;4957000;28;20976;-76
2022/04/13 08:52:39;;;;;;;21.00;11.70;;;;;;;19.72;85.28;101469.56;4967138;28;20022;-76
2022/04/13 08:55:14;;;;;;;18.23;11.20;;;;;;;20.15;74.59;101475.97;4952901;28;20326;-76
2022/04/13 08:57:47;;;;;;;16.48;11.45;;;;;;;20.28;73.53;101471.94;4970141;28;20038;-76
2022/04/13 09:00:18;;;;;;;20.95;12.43;;;;;;;20.41;72.27;101474.22;4956852;28;20049;-77
2022/04/13 09:03:22;;;;;;;19.17;10.77;;;;;;;20.66;68.45;101479.06;4960968;28;20640;-77
2022/04/13 09:05:53;;;;;;;15.90;9.57;;;;;;;20.91;66.50;101477.56;4946712;28;20053;-77
2022/04/13 09:08:28;;;;;;;21.17;10.52;;;;;;;20.75;65.24;101482.16;4963157;28;20033;-77
2022/04/13 09:10:54;;;;;;;17.45;10.50;;;;;;;20.58;69.52;101484.22;4968162;28;20117;-78
2022/04/13 09:13:21;;;;;;;20.38;10.07;;;;;;;20.98;65.74;101475.41;4971290;28;20950;-78
2022/04/13 09:15:47;;;;;;;16.75;10.27;;;;;;;21.18;63.71;101494.66;4969774;28;20033;-77
2022/04/13 09:18:13;;;;;;;17.45;12.25;;;;;;;20.75;66.08;101484.06;4938818;28;20049;-77
2022/04/13 09:20:39;;;;;;;22.77;11.38;;;;;;;20.21;69.18;101491.31;4967317;28;20056;-77
2022/04/13 09:23:06;;;;;;;21.55;10.93;;;;;;;20.05;73.42;101488.75;4967760;28;20057;-78
2022/04/13 09:25:33;;;;;;;18.42;10.02;;;;;;;20.56;70.80;101483.66;4952889;28;20079;-78
2022/04/13 09:27:59;;;;;;;19.92;11.20;;;;;;;21.03;67.23;101486.41;4952090;28;20139;-78
2022/04/13 09:30:25;;;;;;;18.65;10.48;;;;;;;21.54;64.26;101481.09;4973093;28;20079;-78
2022/04/13 09:32:51;;;;;;;17.02;10.82;;;;;;;21.81;62.21;101485.53;4966692;28;23464;-75
2022/04/13 09:35:18;;;;;;;17.25;10.38;;;;;;;21.73;60.81;101484.16;4954951;28;20084;-76
2022/04/13 09:37:44;;;;;;;15.85;9.05;;;;;;;21.96;60.84;101496.50;4968021;28;20053;-77
2022/04/13 09:40:10;;;;;;;15.70;8.65;;;;;;;21.99;57.55;101493.22;4953152;28;20140;-75
2022/04/13 09:42:36;;;;;;;20.02;9.18;;;;;;;22.21;58.35;101494.91;4973080;28;20110;-75
2022/04/13 09:45:02;;;;;;;19.30;8.65;;;;;;;22.51;56.92;101503.13;4940793;28;20144;-75
2022/04/13 09:47:33;;;;;;;14.73;8.32;;;;;;;22.62;55.52;101496.50;4970351;28;20040;-75
2022/04/13 09:49:59;;;;;;;14.98;8.25;;;;;;;22.83;55.35;101504.69;4954376;28;20053;-75
2022/04/13 09:52:26;;;;;;;13.93;7.57;;;;;;;22.92;54.94;101507.69;4970456;28;20065;-76
2022/04/13 09:54:51;;;;;;;13.98;7.82;;;;;;;22.89;53.82;101506.34;4967195;28;20090;-76
2022/04/13 09:57:25;;;;;;;17.67;8.77;;;;;;;22.51;54.89;101505.84;4956690;28;23676;-75
2022/04/13 09:59:58;;;;;;;10.95;7.95;;;;;;;22.15;56.50;101507.81;4971919;28;20033;-76
2022/04/13 10:02:35;;;;;;;15.90;8.27;;;;;;;21.98;57.51;101509.97;4942835;28;20049;-75
2022/04/13 10:05:01;;;;;;;14.90;7.97;;;;;;;21.86;57.48;101512.97;4973908;28;20714;-77
2022/04/13 10:07:26;;;;;;;14.43;7.55;;;;;;;21.83;57.56;101500.63;4965277;28;20046;-74
2022/04/13 10:09:51;;;;;;;13.13;7.43;;;;;;;21.87;57.94;101496.25;4983897;28;20046;-76
2022/04/13 10:12:17;;;;;;;16.48;8.02;;;;;;;22.18;56.46;101503.69;4962345;28;20143;-75
2022/04/13 10:14:43;;;;;;;15.52;7.43;;;;;;;22.39;55.40;101502.56;4968991;28;20139;-75
2022/04/13 10:17:15;;;;;;;14.23;7.00;;;;;;;22.33;54.04;101498.19;4949033;28;20148;-76
2022/04/13 10:19:42;;;;;;;10.85;7.03;;;;;;;22.14;54.29;101506.97;4966603;28;20041;-76
2022/04/13 10:22:07;;;;;;;12.23;7.28;;;;;;;22.19;55.72;101505.34;4966192;28;20033;-76
2022/04/13 10:24:35;;;;;;;12.77;7.00;;;;;;;22.47;54.64;101512.19;4949268;28;20929;-73
2022/04/13 10:27:07;;;;;;;13.18;7.18;;;;;;;22.71;52.95;101509.66;4963794;28;20033;-73
2022/04/13 10:29:37;;;;;;;11.88;7.68;;;;;;;23.23;52.51;101505.66;4935724;28;20045;-74
2022/04/13 10:32:11;;;;;;;10.32;7.13;;;;;;;23.41;52.98;101502.31;4967696;28;22986;-76
2022/04/13 10:34:38;;;;;;;11.27;6.95;;;;;;;23.66;50.85;101495.81;4950011;28;20099;-76
2022/04/13 10:37:06;;;;;;;12.63;7.75;;;;;;;23.36;51.19;101494.06;4967513;28;20038;-75
2022/04/13 10:39:31;;;;;;;11.93;6.93;;;;;;;22.76;53.21;101495.94;4951224;28;20216;-75
2022/04/13 10:41:57;;;;;;;12.43;6.38;;;;;;;22.74;53.37;101495.38;4969711;28;20044;-75
2022/04/13 10:44:34;;;;;;;13.45;7.28;;;;;;;22.86;52.52;101493.97;4973177;28;20073;-73
2022/04/13 10:47:05;;;;;;;11.73;6.53;;;;;;;23.42;52.64;101503.94;4961533;28;20136;-72
2022/04/13 10:49:55;;;;;;;13.40;6.43;;;;;;;24.00;49.87;101498.63;4951813;28;20193;-72
2022/04/13 10:52:42;;;;;;;10.07;5.55;;;;;;;24.30;49.96;101502.22;4966489;28;20426;-73
2022/04/13 10:55:10;;;;;;;11.93;5.82;;;;;;;23.97;49.63;101506.63;4967869;28;21041;-72
2022/04/13 10:58:16;;;;;;;12.23;5.53;;;;;;;24.46;48.67;101522.19;4938974;28;20049;-72
2022/04/13 11:00:44;;;;;;;12.55;5.63;;;;;;;24.33;47.26;101520.13;4966351;28;20033;-72
2022/04/13 11:03:11;;;;;;;9.15;4.80;;;;;;;24.15;48.79;101527.13;4949173;28;20045;-72
2022/04/13 11:05:40;;;;;;;10.55;4.63;;;;;;;23.90;48.04;101515.19;4971656;28;20033;-72